• Join FlightAware (Why Join?)
  • Login
  • US Flag 
07:27AM EDT


 

Airport Tracker/Info


-or-


 

Live Flight TrackerFlight Track Log ✈ SWA756 ✈ 03-May-2013 ✈ KOAK - KSAN

Flight Track Log - Related Links

Times and Time Zones

All times are in EDT time to prevent confusion due to time zone crossing. See the SWA756 flight status page for this flight to view local times or setup timezone preferences in your user account.

Time Position Orientation Groundspeed Altitude Reporting Facility
EDT Latitude Longitude Course Direction KTS MPH feet Rate Location/Type
02:40PM 37.7619 -122.3408 296° West 213 245 4,700  Level Oakland Center
02:41PM 37.7175 -122.3992 226° Southwest 241 277 8,200 3,180 Climbing Oakland Center
02:42PM 37.6342 -122.4703 214° Southwest 301 346 11,300 3,120 Climbing Oakland Center
02:43PM 37.5497 -122.5381 212° Southwest 354 407 14,600 3,120 Climbing Oakland Center
02:44PM 37.4464 -122.5489 185° South 375 432 17,700 3,060 Climbing Oakland Center
02:45PM 37.3375 -122.5542 182° South 390 449 20,900 2,760 Climbing Oakland Center
02:46PM 37.2250 -122.5589 182° South 401 461 23,400 2,280 Climbing Oakland Center
02:47PM 37.1061 -122.5658 183° South 425 489 25,700 2,160 Climbing Oakland Center
02:48PM 36.9931 -122.5169 161° South 447 514 27,900 1,980 Climbing Oakland Center
02:49PM 36.8994 -122.4114 138° Southeast 454 522 29,800 1,920 Climbing Oakland Center
02:50PM 36.7814 -122.2844 139° Southeast 468 539 31,900 1,980 Climbing Oakland Center
02:51PM 36.6836 -122.1794 139° Southeast 467 537 33,900 1,860 Climbing Oakland Center
02:52PM 36.5853 -122.0747 139° Southeast 465 535 35,800 1,800 Climbing Oakland Center
02:53PM 36.4894 -121.9694 139° Southeast 462 532 37,600 1,560 Climbing Oakland Center
02:54PM 36.3947 -121.8700 140° Southeast 451 519 39,000 660 Climbing Oakland Center
02:56PM 36.2878 -121.7542 139° Southeast 448 516 39,000  Level Oakland Center
02:57PM 36.1925 -121.6536 140° Southeast 450 518 39,000  Level Oakland Center
02:58PM 36.1108 -121.5369 131° Southeast 449 517 39,000  Level Oakland Center
02:59PM 36.0314 -121.4172 129° Southeast 450 518 39,000  Level Oakland Center
03:00PM 35.9511 -121.3000 130° Southeast 448 516 39,000  Level Oakland Center
03:01PM 35.8722 -121.1817 129° Southeast 448 516 39,000  Level Oakland Center
03:02PM 35.7911 -121.0658 131° Southeast 447 514 39,000  Level Oakland Center
03:03PM 35.6967 -120.9247 129° Southeast 446 513 39,000  Level Oakland Center
03:04PM 35.6178 -120.8089 130° Southeast 444 511 39,000  Level Oakland Center
03:05PM 35.5383 -120.6928 130° Southeast 445 512 39,000  Level Oakland Center
03:06PM 35.4572 -120.5803 131° Southeast 444 511 39,000  Level Oakland Center
03:07PM 35.3722 -120.4575 130° Southeast 446 513 39,000  Level Oakland Center
03:08PM 35.2961 -120.3386 128° Southeast 443 510 39,000  Level Los Angeles Center
03:09PM 35.2250 -120.2400 131° Southeast 447 514 39,000  Level Los Angeles Center
03:10PM 35.1306 -120.1047 130° Southeast 442 509 39,000  Level Los Angeles Center
03:11PM 35.0514 -119.9903 130° Southeast 442 509 39,000  Level Los Angeles Center
03:12PM 34.9711 -119.8767 131° Southeast 443 510 39,000  Level Los Angeles Center
03:13PM 34.8911 -119.7628 131° Southeast 442 509 39,000  Level Los Angeles Center
03:14PM 34.8108 -119.6494 131° Southeast 442 509 39,000  Level Los Angeles Center
03:15PM 34.7139 -119.5136 131° Southeast 443 510 39,000  Level Los Angeles Center
03:16PM 34.6333 -119.4031 132° Southeast 440 506 39,000  Level Los Angeles Center
03:17PM 34.5581 -119.2964 131° Southeast 440 506 39,000  Level Los Angeles Center
03:18PM 34.4786 -119.1853 131° Southeast 438 504 39,000  Level Los Angeles Center
03:19PM 34.3819 -119.0506 131° Southeast 441 507 39,000  Level Los Angeles Center
03:20PM 34.3019 -118.9392 131° Southeast 441 507 39,000  Level Los Angeles Center
03:21PM 34.2203 -118.8264 131° Southeast 443 510 39,000  Level Los Angeles Center
03:22PM 34.1383 -118.7136 131° Southeast 445 512 39,000  Level Los Angeles Center
03:23PM 34.0553 -118.6006 132° Southeast 449 517 39,000 -960 Level Los Angeles Center
03:24PM 33.9736 -118.4878 131° Southeast 446 513 37,100 -2,280 Descending Los Angeles Center
03:25PM 33.8911 -118.3744 131° Southeast 446 513 34,400 -3,000 Descending Los Angeles Center
03:26PM 33.7786 -118.2394 135° Southeast 465 535 31,000 -2,820 Descending Los Angeles Center
03:27PM 33.6939 -118.1261 132° Southeast 446 513 28,600 -2,220 Descending Los Angeles Center
03:28PM 33.6114 -118.0208 133° Southeast 432 497 26,400 -2,040 Descending Los Angeles Center
03:30PM 33.5311 -117.9206 134° Southeast 417 480 24,400 -2,040 Descending Los Angeles Center
03:31PM 33.4528 -117.8222 134° Southeast 409 471 22,200 -2,100 Descending Los Angeles Center
03:32PM 33.3769 -117.7269 134° Southeast 397 457 20,100 -2,040 Descending Los Angeles Center
03:33PM 33.3036 -117.6347 134° Southeast 386 444 18,000 -2,280 Descending Los Angeles Center
03:34PM 33.2144 -117.5336 136° Southeast 370 426 15,500 -1,620 Descending Los Angeles Center
03:35PM 33.1353 -117.4689 146° Southeast 350 403 14,700 -1,440 Descending Los Angeles Center
03:36PM 33.0647 -117.4103 145° Southeast 316 364 12,600 -1,860 Descending Los Angeles Center
03:37PM 32.9933 -117.3539 146° Southeast 309 356 10,900 -1,680 Descending Los Angeles Center
03:38PM 32.9333 -117.3000 143° Southeast 277 319 9,600 -1,680 Descending Southern California TRACON
03:39PM 32.8833 -117.2333 132° Southeast 277 319 8,000 -1,320 Descending Southern California TRACON
03:40PM 32.8333 -117.1667 132° Southeast 270 311 7,000 -780 Descending Southern California TRACON
03:40PM 32.8192 -117.1547 145° Southeast 266 306 7,000 -540 Level Los Angeles Center
03:41PM 32.8000 -117.1167 121° Southeast 218 251 6,500 -1,140 Descending Southern California TRACON
03:41PM 32.7833 -117.0500 107° East 222 255 5,200 -900 Descending Southern California TRACON
03:43PM 32.7667 -116.9833 107° East 198 228 4,700 -780 Descending Southern California TRACON
03:44PM 32.7167 -116.9833 180° South 202 232 3,600 -1,020 Descending Southern California TRACON
03:45PM 32.7000 -117.0333 248° West 187 215 2,700 -900 Descending Southern California TRACON
03:46PM 32.7167 -117.0833 292° West 170 196 1,800 -900 Descending Southern California TRACON
03:47PM 32.7167 -117.1333 270° West 135 155 900 -780 Descending Southern California TRACON
03:47PM 32.7244 -117.1497 299° West 146 168 600 -540 Descending Los Angeles Center
03:48PM 32.7372 -117.1981 287° West 139 160 100 -540 Descending Los Angeles Center